Time;durP1;ratioP1;P1;durP2;ratioP2;P2;SDS_P1;SDS_P2;PMS_P1;PMS_P2;Temp;Humidity;BMP_temperature;BMP_pressure;BME280_temperature;BME280_humidity;BME280_pressure;Samples;Min_cycle;Max_cycle;Signal;HPM_P1;HPM_P2
2022/12/03 00:01:25;;;;;;;0.05;0.05;;;13.70;73.50;;;;;;4211608;28;20104;-59
2022/12/03 00:04:06;;;;;;;0.00;0.00;;;13.70;73.40;;;;;;4210242;28;20042;-59
2022/12/03 00:06:47;;;;;;;1.08;1.08;;;13.70;73.70;;;;;;4193041;28;20610;-70
2022/12/03 00:09:30;;;;;;;0.00;0.00;;;13.70;72.70;;;;;;4194738;28;20059;-71
2022/12/03 00:12:11;;;;;;;0.25;0.25;;;13.70;73.40;;;;;;4210234;28;20498;-71
2022/12/03 00:14:52;;;;;;;0.00;0.00;;;13.80;73.10;;;;;;4210792;28;20055;-71
2022/12/03 00:17:33;;;;;;;0.00;0.00;;;13.80;72.70;;;;;;4211226;28;20289;-71
2022/12/03 00:20:19;;;;;;;0.03;0.03;;;13.90;72.50;;;;;;4194449;28;20649;-70
2022/12/03 00:23:00;;;;;;;0.63;0.63;;;14.00;72.30;;;;;;4177548;28;20479;-70
2022/12/03 00:25:42;;;;;;;6.68;1.08;;;14.00;71.50;;;;;;4177379;28;20561;-70
2022/12/03 00:28:23;;;;;;;0.30;0.30;;;14.10;71.30;;;;;;4176475;28;20098;-70
2022/12/03 00:31:04;;;;;;;0.73;0.73;;;14.20;70.90;;;;;;4177924;28;20554;-70
2022/12/03 00:33:45;;;;;;;0.00;0.00;;;14.20;70.70;;;;;;4205013;28;20081;-70
2022/12/03 00:36:26;;;;;;;0.00;0.00;;;14.20;70.60;;;;;;4177977;28;20063;-71
2022/12/03 00:39:07;;;;;;;0.10;0.10;;;14.20;70.60;;;;;;4192202;28;20059;-70
2022/12/03 00:41:49;;;;;;;1.60;1.50;;;14.10;70.30;;;;;;4193773;28;20168;-70
2022/12/03 00:44:30;;;;;;;0.47;0.47;;;14.10;70.80;;;;;;4194004;28;20560;-70
2022/12/03 00:47:11;;;;;;;0.00;0.00;;;14.00;71.50;;;;;;4194132;28;20039;-70
2022/12/03 00:49:52;;;;;;;0.97;0.97;;;14.00;71.00;;;;;;4194012;28;20071;-70
2022/12/03 00:52:33;;;;;;;0.00;0.00;;;14.00;71.70;;;;;;4194113;28;20287;-70
2022/12/03 00:55:14;;;;;;;0.00;0.00;;;14.20;71.50;;;;;;4195308;28;20056;-70
2022/12/03 00:57:57;;;;;;;0.98;0.90;;;14.30;71.10;;;;;;4193900;28;20178;-70
2022/12/03 01:00:38;;;;;;;0.25;0.25;;;14.40;70.70;;;;;;4193544;28;20060;-70
2022/12/03 01:03:19;;;;;;;;;;;14.50;70.40;;;;;;4194398;28;20051;-70
2022/12/03 01:05:59;;;;;;;1.13;1.13;;;14.60;69.90;;;;;;4193245;27;19927;-70
2022/12/03 01:08:40;;;;;;;0.10;0.10;;;14.60;69.60;;;;;;4193703;28;20056;-70
2022/12/03 01:11:40;;;;;;;0.30;0.30;;;14.70;69.60;;;;;;4193533;28;20257;-69
2022/12/03 01:14:23;;;;;;;0.10;0.10;;;14.70;69.20;;;;;;4182807;28;20055;-70
2022/12/03 01:17:04;;;;;;;0.57;0.52;;;14.80;68.70;;;;;;4193734;28;20379;-70
2022/12/03 01:19:45;;;;;;;0.00;0.00;;;14.90;68.50;;;;;;4193536;28;20055;-71
2022/12/03 01:22:28;;;;;;;0.00;0.00;;;15.00;68.10;;;;;;4199634;28;20184;-70
2022/12/03 01:25:09;;;;;;;0.90;0.52;;;15.10;67.60;;;;;;4210209;28;20051;-70
2022/12/03 01:27:50;;;;;;;0.00;0.00;;;15.20;67.20;;;;;;4210115;28;20059;-69
2022/12/03 01:32:15;;;;;;;0.10;0.10;;;15.30;66.80;;;;;;4195840;28;20489;-69
2022/12/03 01:33:32;;;;;;;0.00;0.00;;;15.30;66.40;;;;;;4175005;28;20067;-69
2022/12/03 01:36:13;;;;;;;0.10;0.10;;;15.40;66.30;;;;;;4176400;28;20044;-69
2022/12/03 01:38:54;;;;;;;2.88;1.52;;;15.50;66.30;;;;;;4175816;28;20420;-69
2022/12/03 01:41:36;;;;;;;1.40;1.30;;;15.50;65.90;;;;;;4179667;28;20056;-70
2022/12/03 01:44:19;;;;;;;0.20;0.20;;;15.50;65.60;;;;;;4208812;28;20331;-69
2022/12/03 01:47:04;;;;;;;0.15;0.15;;;15.60;65.30;;;;;;4195754;28;20169;-69
2022/12/03 01:49:46;;;;;;;0.28;0.28;;;15.60;65.30;;;;;;4196478;28;20407;-69
2022/12/03 01:52:31;;;;;;;0.00;0.00;;;15.60;65.30;;;;;;4209563;28;20522;-69
2022/12/03 01:55:15;;;;;;;1.65;1.35;;;15.60;65.70;;;;;;4208811;28;20050;-69
2022/12/03 01:57:58;;;;;;;0.85;0.85;;;15.60;65.60;;;;;;4209253;28;20097;-69
2022/12/03 02:00:40;;;;;;;0.00;0.00;;;15.70;65.40;;;;;;4209475;28;20047;-69
2022/12/03 02:03:24;;;;;;;0.10;0.10;;;15.70;65.60;;;;;;4208069;28;20043;-69
2022/12/03 02:06:09;;;;;;;1.00;0.98;;;15.80;65.60;;;;;;4197763;28;20487;-70
2022/12/03 02:08:50;;;;;;;7.47;2.45;;;15.80;65.40;;;;;;4190445;28;20404;-69
2022/12/03 02:11:35;;;;;;;1.30;1.20;;;15.80;66.20;;;;;;4192427;28;20055;-70
2022/12/03 02:14:19;;;;;;;0.52;0.52;;;15.80;65.00;;;;;;4208855;28;20189;-69
2022/12/03 02:17:01;;;;;;;0.00;0.00;;;15.80;65.00;;;;;;4209028;28;20079;-70
2022/12/03 02:19:43;;;;;;;0.00;0.00;;;15.80;65.10;;;;;;4186968;28;20048;-70
2022/12/03 02:22:32;;;;;;;0.00;0.00;;;15.80;65.10;;;;;;4192792;28;20054;-70
2022/12/03 02:25:17;;;;;;;0.30;0.30;;;15.70;65.00;;;;;;4192706;28;20506;-70
2022/12/03 02:27:59;;;;;;;0.03;0.03;;;15.70;65.20;;;;;;4192032;28;20064;-69
2022/12/03 02:30:40;;;;;;;0.70;0.70;;;15.60;65.40;;;;;;4202527;28;20502;-68
2022/12/03 02:33:21;;;;;;;1.10;1.10;;;15.60;65.50;;;;;;4209383;28;20047;-69
2022/12/03 02:36:02;;;;;;;0.63;0.63;;;15.60;65.40;;;;;;4190189;28;20494;-68
2022/12/03 02:38:46;;;;;;;0.50;0.50;;;15.60;65.40;;;;;;4192227;28;20201;-70
2022/12/03 02:44:26;;;;;;;1.75;1.20;;;15.50;65.40;;;;;;4192113;28;20146;-71
2022/12/03 02:47:07;;;;;;;0.00;0.00;;;15.50;65.60;;;;;;4192018;28;20351;-71
2022/12/03 02:49:50;;;;;;;0.00;0.00;;;15.50;66.00;;;;;;4191139;28;20059;-69
2022/12/03 02:52:31;;;;;;;0.10;0.10;;;15.50;64.90;;;;;;4193287;28;20408;-69
2022/12/03 02:55:14;;;;;;;0.00;0.00;;;15.60;64.70;;;;;;4191908;28;20502;-69
2022/12/03 02:57:57;;;;;;;0.00;0.00;;;15.60;64.50;;;;;;4190959;28;20098;-70
2022/12/03 03:00:38;;;;;;;0.03;0.03;;;15.50;64.30;;;;;;4191746;28;20079;-68
2022/12/03 03:03:22;;;;;;;0.00;0.00;;;15.50;64.70;;;;;;4191709;28;20058;-70
2022/12/03 03:06:05;;;;;;;0.00;0.00;;;15.50;64.80;;;;;;4191742;28;20452;-69
2022/12/03 03:08:46;;;;;;;0.00;0.00;;;15.50;65.20;;;;;;4205429;28;20148;-70
2022/12/03 03:11:27;;;;;;;0.65;0.52;;;15.50;65.30;;;;;;4203911;28;20097;-70
2022/12/03 03:14:09;;;;;;;0.00;0.00;;;15.50;64.90;;;;;;4200595;28;20070;-71
2022/12/03 03:16:54;;;;;;;0.13;0.13;;;15.50;64.70;;;;;;4208283;28;20051;-68
2022/12/03 03:19:35;;;;;;;0.00;0.00;;;15.60;64.90;;;;;;4208153;28;20129;-69
2022/12/03 03:22:17;;;;;;;0.40;0.40;;;15.60;65.00;;;;;;4208481;28;20113;-69
2022/12/03 03:24:58;;;;;;;0.10;0.10;;;15.70;64.60;;;;;;4199120;28;20105;-69
2022/12/03 03:27:41;;;;;;;0.15;0.15;;;15.80;64.40;;;;;;4191874;28;20106;-69
2022/12/03 03:30:23;;;;;;;0.20;0.20;;;15.80;64.00;;;;;;4191618;28;20056;-69
2022/12/03 03:33:04;;;;;;;0.00;0.00;;;15.80;63.70;;;;;;4191899;28;20051;-68
2022/12/03 03:35:47;;;;;;;0.85;0.85;;;15.80;63.60;;;;;;4191937;28;20070;-68
2022/12/03 03:38:29;;;;;;;0.10;0.10;;;15.70;63.70;;;;;;4191742;28;20055;-69
2022/12/03 03:41:12;;;;;;;0.00;0.00;;;15.70;64.10;;;;;;4191483;28;20052;-69
2022/12/03 03:43:53;;;;;;;0.00;0.00;;;15.60;64.30;;;;;;4192164;28;20170;-69
2022/12/03 03:46:37;;;;;;;0.08;0.08;;;15.60;64.60;;;;;;4191290;28;20051;-68
2022/12/03 03:49:18;;;;;;;0.00;0.00;;;15.60;64.20;;;;;;4191561;28;20048;-68
2022/12/03 03:51:59;;;;;;;0.10;0.10;;;15.70;64.20;;;;;;4191624;28;20055;-68
2022/12/03 03:54:40;;;;;;;0.10;0.10;;;15.70;64.10;;;;;;4191442;28;20055;-68
2022/12/03 03:57:21;;;;;;;0.00;0.00;;;15.70;63.70;;;;;;4190625;28;20461;-70
2022/12/03 04:00:03;;;;;;;0.00;0.00;;;15.80;63.60;;;;;;4174676;28;20487;-70
2022/12/03 04:02:47;;;;;;;0.00;0.00;;;15.90;63.40;;;;;;4187572;28;20130;-69
2022/12/03 04:05:28;;;;;;;0.00;0.00;;;15.90;63.20;;;;;;4191166;28;20116;-70
2022/12/03 04:08:09;;;;;;;0.20;0.20;;;15.80;63.30;;;;;;4191250;28;20093;-69
2022/12/03 04:13:48;;;;;;;0.73;0.73;;;15.70;63.50;;;;;;4194217;28;20119;-70
2022/12/03 04:16:29;;;;;;;0.05;0.05;;;15.60;63.70;;;;;;4177773;28;20048;-70
2022/12/03 04:19:11;;;;;;;0.00;0.00;;;15.60;63.60;;;;;;4178110;28;20106;-70
2022/12/03 04:24:51;;;;;;;0.80;0.73;;;15.60;63.30;;;;;;4194202;28;20411;-70
2022/12/03 04:30:30;;;;;;;0.30;0.30;;;15.50;63.40;;;;;;4210647;28;20435;-68
2022/12/03 04:36:10;;;;;;;0.10;0.10;;;15.50;64.10;;;;;;4209800;28;20510;-69
2022/12/03 04:38:51;;;;;;;0.10;0.10;;;15.50;64.00;;;;;;4211122;28;20038;-69
2022/12/03 04:41:31;;;;;;;0.13;0.13;;;15.50;63.60;;;;;;4209320;28;20055;-70
2022/12/03 04:47:12;;;;;;;0.00;0.00;;;15.60;63.40;;;;;;4201041;28;20197;-70
2022/12/03 04:49:53;;;;;;;0.10;0.10;;;15.70;63.30;;;;;;4193659;28;20068;-70
2022/12/03 04:52:35;;;;;;;0.00;0.00;;;15.80;62.80;;;;;;4193740;28;20186;-70
2022/12/03 04:55:16;;;;;;;0.00;0.00;;;15.90;62.60;;;;;;4195760;28;20582;-69
2022/12/03 04:57:57;;;;;;;0.00;0.00;;;16.00;62.50;;;;;;4210448;28;20050;-70
2022/12/03 05:00:38;;;;;;;0.00;0.00;;;16.10;61.80;;;;;;4210218;28;20285;-70
2022/12/03 05:03:19;;;;;;;0.38;0.38;;;16.10;61.90;;;;;;4207784;28;20423;-69
2022/12/03 05:06:00;;;;;;;0.08;0.08;;;16.20;62.10;;;;;;4194341;28;20056;-71
2022/12/03 05:08:42;;;;;;;1.65;1.55;;;16.20;61.60;;;;;;4192232;28;20055;-72
2022/12/03 05:11:23;;;;;;;0.98;0.75;;;16.20;61.20;;;;;;4193075;28;20063;-70
2022/12/03 05:14:05;;;;;;;0.00;0.00;;;16.20;61.00;;;;;;4193537;28;20051;-69
2022/12/03 05:16:45;;;;;;;0.00;0.00;;;16.20;60.90;;;;;;4193588;28;20052;-69
2022/12/03 05:20:40;;;;;;;0.10;0.10;;;16.10;61.20;;;;;;4193314;28;20129;-69
2022/12/03 05:22:26;;;;;;;0.00;0.00;;;16.10;61.20;;;;;;4194006;28;20064;-69
2022/12/03 05:25:09;;;;;;;0.03;0.03;;;16.10;61.10;;;;;;4176498;28;20043;-69
2022/12/03 05:27:50;;;;;;;0.00;0.00;;;16.10;61.20;;;;;;4176916;28;20094;-69
2022/12/03 05:30:31;;;;;;;0.45;0.45;;;16.10;61.20;;;;;;4176557;28;20483;-69
2022/12/03 05:33:12;;;;;;;0.00;0.00;;;16.10;61.40;;;;;;4183412;28;20051;-69
2022/12/03 05:35:52;;;;;;;0.38;0.38;;;16.00;61.60;;;;;;4209999;28;20047;-69
2022/12/03 05:38:33;;;;;;;0.00;0.00;;;16.00;62.00;;;;;;4209977;28;20051;-70
2022/12/03 05:44:14;;;;;;;1.75;0.80;;;16.00;62.10;;;;;;4192427;28;20094;-69
2022/12/03 05:47:00;;;;;;;0.00;0.00;;;15.90;63.00;;;;;;4191804;28;20078;-70
2022/12/03 05:49:40;;;;;;;0.00;0.00;;;15.90;62.50;;;;;;4193160;28;20056;-70
2022/12/03 05:52:21;;;;;;;0.43;0.43;;;15.80;62.90;;;;;;4193192;28;20424;-70
2022/12/03 05:55:02;;;;;;;0.10;0.10;;;15.70;63.40;;;;;;4192526;28;20419;-71
2022/12/03 05:57:46;;;;;;;0.30;0.30;;;15.70;63.80;;;;;;4193974;28;20063;-71
2022/12/03 06:00:29;;;;;;;0.15;0.15;;;15.50;64.30;;;;;;4192779;28;20052;-71
2022/12/03 06:03:10;;;;;;;0.00;0.00;;;15.40;64.50;;;;;;4192686;28;20185;-71
2022/12/03 06:05:52;;;;;;;0.10;0.10;;;15.30;65.10;;;;;;4192384;28;20055;-60
2022/12/03 06:08:33;;;;;;;0.00;0.00;;;15.20;65.80;;;;;;4192370;28;20050;-60
2022/12/03 06:11:13;;;;;;;0.68;0.68;;;15.30;65.90;;;;;;4206341;28;20169;-60
2022/12/03 06:13:56;;;;;;;0.10;0.10;;;15.40;65.30;;;;;;4198946;28;20059;-60
2022/12/03 06:16:37;;;;;;;0.98;0.20;;;15.50;64.80;;;;;;4197277;28;20051;-60
2022/12/03 06:19:18;;;;;;;0.10;0.10;;;15.60;64.30;;;;;;4209438;28;20446;-60
2022/12/03 06:21:59;;;;;;;0.00;0.00;;;15.70;63.80;;;;;;4205636;28;20047;-61
2022/12/03 06:24:40;;;;;;;0.00;0.00;;;15.80;63.40;;;;;;4191269;28;20052;-70
2022/12/03 06:27:21;;;;;;;0.10;0.10;;;15.90;63.40;;;;;;4191541;28;20372;-70
2022/12/03 06:30:03;;;;;;;0.43;0.43;;;16.00;63.20;;;;;;4193467;28;20051;-69
2022/12/03 06:32:44;;;;;;;0.00;0.00;;;16.00;62.60;;;;;;4176116;28;20060;-69
2022/12/03 06:35:25;;;;;;;0.75;0.75;;;16.10;62.20;;;;;;4175967;28;20056;-69
2022/12/03 06:38:06;;;;;;;0.15;0.15;;;16.10;61.80;;;;;;4175969;28;20067;-69
2022/12/03 06:40:47;;;;;;;3.00;2.78;;;16.10;61.80;;;;;;4197910;28;20161;-70
2022/12/03 06:43:29;;;;;;;0.00;0.00;;;16.10;61.70;;;;;;4191423;28;20055;-69
2022/12/03 06:46:11;;;;;;;4.68;2.72;;;16.10;61.90;;;;;;4192061;28;20159;-63
2022/12/03 06:48:52;;;;;;;0.10;0.10;;;16.10;62.00;;;;;;4193429;28;20055;-66
2022/12/03 06:51:33;;;;;;;0.08;0.08;;;16.10;62.30;;;;;;4192302;28;20059;-66
2022/12/03 06:54:14;;;;;;;0.00;0.00;;;16.20;62.60;;;;;;4192078;28;20400;-66
2022/12/03 06:56:55;;;;;;;2.70;1.65;;;16.20;62.20;;;;;;4191759;28;20460;-59
2022/12/03 06:59:36;;;;;;;0.00;0.00;;;16.10;61.90;;;;;;4206350;28;20074;-59
2022/12/03 07:02:18;;;;;;;0.35;0.35;;;16.10;62.10;;;;;;4207319;28;20051;-58
2022/12/03 07:05:00;;;;;;;0.28;0.28;;;16.10;62.00;;;;;;4199707;28;20199;-59
2022/12/03 07:07:41;;;;;;;0.00;0.00;;;16.20;62.10;;;;;;4191406;28;20440;-60
2022/12/03 07:10:22;;;;;;;0.10;0.10;;;16.20;61.80;;;;;;4191538;28;20071;-59
2022/12/03 07:13:03;;;;;;;0.52;0.52;;;16.20;61.40;;;;;;4195568;27;20059;-60
2022/12/03 07:15:44;;;;;;;0.00;0.00;;;16.20;61.70;;;;;;4208481;27;20059;-59
2022/12/03 07:18:26;;;;;;;0.40;0.40;;;16.20;61.80;;;;;;4207880;27;20105;-59
2022/12/03 07:21:07;;;;;;;0.50;0.50;;;16.20;61.20;;;;;;4201521;27;20052;-59
2022/12/03 07:23:48;;;;;;;0.47;0.47;;;16.20;61.20;;;;;;4191996;28;20055;-59
2022/12/03 07:26:29;;;;;;;0.90;0.90;;;16.20;61.20;;;;;;4191784;28;20098;-59
2022/12/03 07:29:10;;;;;;;0.75;0.75;;;16.10;61.20;;;;;;4191374;28;20443;-59
2022/12/03 07:31:51;;;;;;;3.55;1.20;;;16.10;61.20;;;;;;4191339;28;20067;-60
2022/12/03 07:34:33;;;;;;;0.17;0.17;;;16.10;61.00;;;;;;4175201;28;20122;-59
2022/12/03 07:37:14;;;;;;;0.88;0.80;;;16.10;60.90;;;;;;4207829;28;20300;-59
2022/12/03 07:39:59;;;;;;;1.95;1.83;;;16.10;60.90;;;;;;4207923;28;20147;-60
2022/12/03 07:42:40;;;;;;;0.00;0.00;;;16.10;61.30;;;;;;4207065;28;20406;-59
2022/12/03 07:45:21;;;;;;;;;;;16.00;62.00;;;;;;4193514;28;20062;-59
2022/12/03 07:48:02;;;;;;;0.65;0.65;;;16.00;62.40;;;;;;4194552;28;19962;-59
2022/12/03 07:50:44;;;;;;;0.00;0.00;;;15.90;63.30;;;;;;4194727;28;20047;-58
2022/12/03 07:53:25;;;;;;;0.00;0.00;;;15.80;63.60;;;;;;4194904;28;20059;-59
2022/12/03 07:56:07;;;;;;;1.58;0.55;;;15.80;63.50;;;;;;4209548;28;20128;-59
2022/12/03 07:58:48;;;;;;;0.13;0.13;;;15.70;63.60;;;;;;4211061;28;20062;-59
2022/12/03 08:01:29;;;;;;;0.00;0.00;;;15.70;63.50;;;;;;4176501;28;20048;-59
2022/12/03 08:04:11;;;;;;;0.50;0.50;;;15.60;63.60;;;;;;4192396;28;20101;-58
2022/12/03 08:06:54;;;;;;;0.30;0.30;;;15.60;63.90;;;;;;4197441;28;20047;-59
2022/12/03 08:09:34;;;;;;;0.00;0.00;;;15.60;63.70;;;;;;4193625;28;20087;-59
2022/12/03 08:12:17;;;;;;;0.00;0.00;;;15.50;63.90;;;;;;4204770;27;20410;-59
2022/12/03 08:14:58;;;;;;;0.00;0.00;;;15.60;64.00;;;;;;4194602;28;20501;-58
2022/12/03 08:17:41;;;;;;;3.47;1.13;;;15.60;63.70;;;;;;4181739;28;20526;-59
2022/12/03 08:20:23;;;;;;;0.38;0.38;;;15.80;63.30;;;;;;4194128;28;20217;-58
2022/12/03 08:23:13;;;;;;;0.13;0.13;;;15.90;62.80;;;;;;4196919;28;20055;-58
2022/12/03 08:25:53;;;;;;;0.10;0.10;;;16.00;62.30;;;;;;4189239;28;20117;-58
2022/12/03 08:28:36;;;;;;;0.00;0.00;;;16.00;61.80;;;;;;4197945;27;20048;-59
2022/12/03 08:31:19;;;;;;;0.20;0.20;;;16.10;61.40;;;;;;4178374;28;20055;-58
2022/12/03 08:34:15;;;;;;;0.10;0.10;;;16.10;61.20;;;;;;4207711;28;20059;-58
2022/12/03 08:37:01;;;;;;;0.00;0.00;;;16.10;60.80;;;;;;4209928;28;20394;-59
2022/12/03 08:39:45;;;;;;;0.00;0.00;;;16.10;60.60;;;;;;4210493;28;20105;-59
2022/12/03 08:42:41;;;;;;;0.00;0.00;;;16.10;60.50;;;;;;4204652;28;20055;-59
2022/12/03 08:45:40;;;;;;;0.00;0.00;;;16.20;60.50;;;;;;4182544;28;20506;-58
2022/12/03 08:48:26;;;;;;;0.05;0.05;;;16.30;60.20;;;;;;4193859;28;20118;-58
2022/12/03 08:51:15;;;;;;;0.00;0.00;;;16.30;59.60;;;;;;4192765;28;20055;-58
2022/12/03 08:53:59;;;;;;;0.00;0.00;;;16.30;59.60;;;;;;4191076;28;20060;-58
2022/12/03 08:56:43;;;;;;;0.00;0.00;;;16.30;59.60;;;;;;4176184;28;20134;-59
2022/12/03 08:59:28;;;;;;;4.38;3.60;;;16.20;59.90;;;;;;4177373;28;20047;-63
2022/12/03 09:02:18;;;;;;;0.63;0.63;;;16.30;60.30;;;;;;4184309;28;20104;-64
2022/12/03 09:05:02;;;;;;;0.52;0.52;;;16.20;60.00;;;;;;4193841;28;20440;-65
2022/12/03 09:07:43;;;;;;;0.10;0.10;;;16.20;60.20;;;;;;4176711;28;20126;-66
2022/12/03 09:10:23;;;;;;;0.30;0.30;;;16.20;60.20;;;;;;4176464;28;20055;-64
2022/12/03 09:13:06;;;;;;;0.10;0.10;;;16.10;60.10;;;;;;4168848;28;20198;-64
2022/12/03 09:15:46;;;;;;;1.33;1.30;;;16.10;60.20;;;;;;4193167;28;20175;-64
2022/12/03 09:18:28;;;;;;;2.97;2.75;;;16.10;60.50;;;;;;4193584;28;20585;-64
2022/12/03 09:21:08;;;;;;;1.45;1.05;;;16.00;60.50;;;;;;4193163;28;20059;-64
2022/12/03 09:23:49;;;;;;;1.58;1.58;;;16.00;60.80;;;;;;4200070;28;20398;-65
2022/12/03 09:26:30;;;;;;;8.38;3.75;;;15.90;60.90;;;;;;4193154;28;20067;-64
2022/12/03 09:29:12;;;;;;;2.13;2.03;;;15.90;60.60;;;;;;4192890;28;20058;-64
2022/12/03 09:31:53;;;;;;;11.27;5.28;;;15.90;61.00;;;;;;4192902;28;20098;-64
2022/12/03 09:34:34;;;;;;;3.47;3.20;;;15.80;61.50;;;;;;4192870;28;20059;-63
2022/12/03 09:37:16;;;;;;;10.13;9.43;;;15.80;62.10;;;;;;4207670;27;20491;-58
2022/12/03 09:39:57;;;;;;;6.00;5.68;;;15.80;62.30;;;;;;4209800;27;20078;-64
2022/12/03 09:42:38;;;;;;;6.63;6.22;;;15.90;62.40;;;;;;4187631;28;20056;-58
2022/12/03 09:45:20;;;;;;;6.68;6.07;;;15.90;61.10;;;;;;4192746;28;20136;-63
2022/12/03 09:48:03;;;;;;;8.50;2.88;;;15.90;60.50;;;;;;4199649;28;20125;-65
2022/12/03 09:50:44;;;;;;;7.28;6.75;;;15.90;60.70;;;;;;4208489;28;20635;-64
2022/12/03 09:53:28;;;;;;;7.28;6.43;;;16.00;60.40;;;;;;4209371;28;20050;-65
2022/12/03 09:56:15;;;;;;;4.53;4.35;;;16.00;60.30;;;;;;4209208;28;20130;-64
2022/12/03 09:58:56;;;;;;;6.00;5.70;;;16.00;60.00;;;;;;4209187;28;20178;-64
2022/12/03 10:01:39;;;;;;;8.65;7.70;;;16.00;60.20;;;;;;4176093;28;20056;-64
2022/12/03 10:04:20;;;;;;;7.78;7.10;;;16.00;61.10;;;;;;4201762;28;20051;-63
2022/12/03 10:07:01;;;;;;;8.55;7.80;;;16.10;60.40;;;;;;4195811;28;20186;-63
2022/12/03 10:09:42;;;;;;;10.25;8.32;;;16.10;59.90;;;;;;4175798;28;20099;-64
2022/12/03 10:12:24;;;;;;;10.52;9.65;;;16.10;60.30;;;;;;4183051;28;20055;-64
2022/12/03 10:15:06;;;;;;;6.28;5.97;;;16.10;60.10;;;;;;4206033;27;20489;-63
2022/12/03 10:17:51;;;;;;;9.77;8.10;;;16.20;59.70;;;;;;4199605;27;20089;-63
2022/12/03 10:20:32;;;;;;;6.60;5.50;;;16.30;59.50;;;;;;4175706;28;20106;-63
2022/12/03 10:23:20;;;;;;;4.80;4.40;;;16.30;59.10;;;;;;4178205;28;20091;-64
2022/12/03 10:26:02;;;;;;;7.35;6.63;;;16.40;58.50;;;;;;4174897;28;20067;-59
2022/12/03 10:28:46;;;;;;;6.13;5.57;;;16.50;58.50;;;;;;4176211;28;20048;-59
2022/12/03 10:31:35;;;;;;;18.65;6.13;;;16.60;58.00;;;;;;4176090;28;20071;-59
2022/12/03 10:34:24;;;;;;;7.63;6.13;;;16.70;58.00;;;;;;4175728;28;20056;-60
2022/12/03 10:37:26;;;;;;;4.60;4.30;;;16.80;58.10;;;;;;4204347;27;20081;-61
2022/12/03 10:40:11;;;;;;;8.30;7.68;;;16.80;58.00;;;;;;4208851;27;20097;-62
2022/12/03 10:42:51;;;;;;;6.55;6.05;;;16.90;58.20;;;;;;4190548;28;20059;-61
2022/12/03 10:45:32;;;;;;;2.78;2.67;;;16.90;58.10;;;;;;4208950;28;20157;-61
2022/12/03 10:48:15;;;;;;;3.88;3.60;;;16.90;58.00;;;;;;4207970;28;20415;-62
2022/12/03 10:51:03;;;;;;;9.40;4.68;;;16.90;58.20;;;;;;4207351;28;20189;-61
2022/12/03 10:53:44;;;;;;;3.97;3.63;;;17.00;58.90;;;;;;4197991;28;20047;-61
2022/12/03 10:56:26;;;;;;;4.72;4.35;;;17.00;57.90;;;;;;4208459;28;20585;-61
2022/12/03 10:59:13;;;;;;;4.68;4.47;;;16.90;58.10;;;;;;4191869;28;20048;-61
2022/12/03 11:01:54;;;;;;;3.70;3.60;;;16.90;57.80;;;;;;4190431;28;20106;-61
2022/12/03 11:04:36;;;;;;;11.18;6.30;;;16.80;58.00;;;;;;4187985;28;20118;-63
2022/12/03 11:07:20;;;;;;;2.78;2.63;;;16.80;58.10;;;;;;4158570;28;20048;-62
2022/12/03 11:10:02;;;;;;;7.78;7.00;;;16.70;58.60;;;;;;4157394;28;20537;-62
2022/12/03 11:12:42;;;;;;;5.25;4.90;;;16.60;59.00;;;;;;4175868;28;20060;-62
2022/12/03 11:15:42;;;;;;;8.43;5.63;;;16.60;59.10;;;;;;4183493;28;20055;-62
2022/12/03 11:19:01;;;;;;;8.98;5.28;;;16.40;59.60;;;;;;4191128;28;20052;-62
2022/12/03 11:22:24;;;;;;;5.78;2.75;;;16.40;59.90;;;;;;4193610;27;20571;-62
2022/12/03 11:25:49;;;;;;;4.22;3.95;;;16.40;59.70;;;;;;4174856;28;20052;-62
2022/12/03 11:28:52;;;;;;;7.43;4.28;;;16.50;59.40;;;;;;4199653;27;20429;-62
2022/12/03 11:31:37;;;;;;;2.17;2.08;;;16.50;59.40;;;;;;4200785;27;20056;-62
2022/12/03 11:34:45;;;;;;;6.15;4.18;;;16.40;59.80;;;;;;4191521;28;20059;-62
2022/12/03 11:37:28;;;;;;;2.20;2.08;;;16.50;58.90;;;;;;4165077;28;20136;-62
2022/12/03 11:40:33;;;;;;;1.98;1.95;;;16.50;58.80;;;;;;4207873;27;20129;-62
2022/12/03 11:43:52;;;;;;;1.05;1.05;;;16.40;58.60;;;;;;4169229;28;20051;-62
2022/12/03 11:46:42;;;;;;;1.55;1.45;;;16.40;59.00;;;;;;4207795;28;20181;-62
2022/12/03 11:49:36;;;;;;;1.92;1.92;;;16.40;59.00;;;;;;4191488;28;20052;-62
2022/12/03 11:52:29;;;;;;;5.20;4.47;;;16.30;59.30;;;;;;4176857;28;20514;-64
2022/12/03 11:55:17;;;;;;;9.15;3.38;;;16.30;59.70;;;;;;4191468;28;20093;-62
2022/12/03 11:58:01;;;;;;;1.92;1.83;;;16.30;59.60;;;;;;4191087;28;20190;-58
2022/12/03 12:00:49;;;;;;;2.45;2.33;;;16.30;60.60;;;;;;4187690;28;20060;-61
2022/12/03 12:03:31;;;;;;;4.82;3.63;;;16.20;61.10;;;;;;4206299;28;20047;-62
2022/12/03 12:06:16;;;;;;;1.83;1.73;;;16.30;62.80;;;;;;4190962;28;20109;-61
2022/12/03 12:08:59;;;;;;;1.77;1.55;;;16.20;62.00;;;;;;4190969;28;20043;-62
2022/12/03 12:11:40;;;;;;;2.10;1.90;;;16.30;62.20;;;;;;4191005;28;20059;-64
2022/12/03 12:14:26;;;;;;;5.57;2.95;;;16.30;62.10;;;;;;4191927;28;20055;-64
2022/12/03 12:17:31;;;;;;;2.00;1.90;;;16.30;61.90;;;;;;4191049;28;20048;-64
2022/12/03 12:20:23;;;;;;;5.68;3.95;;;16.40;61.40;;;;;;4190779;28;20055;-64
2022/12/03 12:23:18;;;;;;;;;;;16.50;60.80;;;;;;4191973;28;20110;-65
2022/12/03 12:26:07;;;;;;;1.17;1.17;;;16.50;61.00;;;;;;4200565;28;20057;-64
2022/12/03 12:28:48;;;;;;;4.75;2.40;;;16.50;60.50;;;;;;4190265;28;20060;-62
2022/12/03 12:31:29;;;;;;;0.17;0.17;;;16.40;60.00;;;;;;4193932;28;20059;-63
2022/12/03 12:34:12;;;;;;;2.72;2.63;;;16.50;59.80;;;;;;4193863;28;20117;-63
2022/12/03 12:36:55;;;;;;;0.05;0.05;;;16.50;59.90;;;;;;4196635;28;20411;-63
2022/12/03 12:39:37;;;;;;;0.20;0.20;;;16.50;59.60;;;;;;4210714;28;20063;-65
2022/12/03 12:42:32;;;;;;;3.40;1.42;;;16.60;59.20;;;;;;4210585;28;20058;-64
2022/12/03 12:45:16;;;;;;;0.45;0.45;;;16.50;59.10;;;;;;4192568;28;20051;-64
2022/12/03 12:48:05;;;;;;;0.88;0.88;;;16.50;59.30;;;;;;4193654;28;20372;-64
2022/12/03 12:50:49;;;;;;;3.00;2.78;;;16.60;59.30;;;;;;4175944;28;20122;-63
2022/12/03 12:53:32;;;;;;;0.15;0.15;;;16.60;58.70;;;;;;4175924;28;20072;-63
2022/12/03 12:56:20;;;;;;;2.78;2.63;;;16.60;59.10;;;;;;4180127;28;20526;-63
2022/12/03 12:59:12;;;;;;;1.15;1.15;;;16.60;58.60;;;;;;4177254;28;20060;-63
2022/12/03 13:01:53;;;;;;;0.88;0.88;;;16.50;58.90;;;;;;4185811;28;20537;-63
2022/12/03 13:04:38;;;;;;;3.40;1.65;;;16.50;59.80;;;;;;4193000;28;20059;-63
2022/12/03 13:07:19;;;;;;;0.15;0.15;;;16.40;59.30;;;;;;4193392;28;20044;-63
2022/12/03 13:10:21;;;;;;;1.17;1.02;;;16.30;59.90;;;;;;4192629;28;20052;-63
2022/12/03 13:13:12;;;;;;;;;;;16.20;60.60;;;;;;4190791;28;20063;-63
2022/12/03 13:16:00;;;;;;;0.00;0.00;;;16.10;61.00;;;;;;4170645;28;19966;-63
2022/12/03 13:18:44;;;;;;;2.85;2.72;;;15.90;61.50;;;;;;4176266;28;20104;-63
2022/12/03 13:21:35;;;;;;;2.22;1.85;;;15.80;62.10;;;;;;4183555;28;20497;-63
2022/12/03 13:24:34;;;;;;;1.58;1.58;;;15.60;62.70;;;;;;4191380;28;20051;-63
2022/12/03 13:27:25;;;;;;;0.43;0.43;;;15.50;63.50;;;;;;4185571;28;20593;-64
2022/12/03 13:30:13;;;;;;;0.55;0.55;;;15.40;63.80;;;;;;4192527;28;20126;-63
2022/12/03 13:32:57;;;;;;;1.23;0.75;;;15.30;63.90;;;;;;4176725;28;20059;-63
2022/12/03 13:35:40;;;;;;;1.30;1.30;;;15.20;64.20;;;;;;4176749;28;20416;-63
2022/12/03 13:38:22;;;;;;;1.15;1.10;;;15.10;64.60;;;;;;4175364;28;20052;-63
2022/12/03 13:41:03;;;;;;;0.10;0.10;;;15.00;64.60;;;;;;4176506;28;20052;-63
2022/12/03 13:43:43;;;;;;;;;;;14.90;65.00;;;;;;4184583;28;20051;-63
2022/12/03 13:46:24;;;;;;;1.50;1.40;;;14.90;65.60;;;;;;4192978;28;19927;-64
2022/12/03 13:49:15;;;;;;;0.65;0.65;;;14.80;65.70;;;;;;4192557;28;20097;-64
2022/12/03 13:51:56;;;;;;;0.17;0.17;;;14.70;66.00;;;;;;4193064;28;20534;-64
2022/12/03 13:54:38;;;;;;;1.95;1.85;;;14.60;65.60;;;;;;4193045;27;20051;-64
2022/12/03 13:57:19;;;;;;;0.40;0.40;;;14.50;65.60;;;;;;4176088;28;20060;-63
2022/12/03 14:00:15;;;;;;;0.15;0.15;;;14.50;67.30;;;;;;4173220;28;20135;-64
2022/12/03 14:02:56;;;;;;;0.10;0.10;;;14.40;67.00;;;;;;4192638;28;20056;-64
2022/12/03 14:05:39;;;;;;;0.15;0.15;;;14.40;67.10;;;;;;4192491;28;20067;-63
2022/12/03 14:08:20;;;;;;;0.43;0.43;;;14.30;66.90;;;;;;4203983;28;20051;-65
2022/12/03 14:11:01;;;;;;;0.10;0.10;;;14.30;67.10;;;;;;4189237;28;20137;-64
2022/12/03 14:13:42;;;;;;;0.60;0.60;;;14.20;67.00;;;;;;4184941;28;20133;-64
2022/12/03 14:16:23;;;;;;;0.13;0.13;;;14.20;67.40;;;;;;4205714;28;20488;-63
2022/12/03 14:19:05;;;;;;;1.20;1.20;;;14.20;67.80;;;;;;4209118;28;20175;-63
2022/12/03 14:21:47;;;;;;;0.13;0.13;;;14.10;67.40;;;;;;4209161;28;20506;-64
2022/12/03 14:24:28;;;;;;;1.27;1.17;;;14.10;67.30;;;;;;4201110;28;20051;-65
2022/12/03 14:27:09;;;;;;;0.22;0.22;;;14.00;68.10;;;;;;4204553;28;20196;-63
2022/12/03 14:29:50;;;;;;;1.08;1.08;;;14.00;68.30;;;;;;4175846;28;20055;-63
2022/12/03 14:32:31;;;;;;;;;;;14.00;68.80;;;;;;4184897;28;20697;-63
2022/12/03 14:35:12;;;;;;;0.57;0.57;;;14.00;69.10;;;;;;4205307;28;19930;-64